sensor_id;sensor_type;location;lat;lon;timestamp;pressure;altitude;pressure_sealevel;temperature;humidity
75166;BME280;63747;48.042;10.088;2024-02-15T00:01:37;95668.09;;;7.14;65.01
75166;BME280;63747;48.042;10.088;2024-02-15T00:04:37;95666.44;;;7.13;64.91
75166;BME280;63747;48.042;10.088;2024-02-15T00:07:38;95672.53;;;7.14;64.90
75166;BME280;63747;48.042;10.088;2024-02-15T00:10:39;95673.38;;;7.14;64.75
75166;BME280;63747;48.042;10.088;2024-02-15T00:13:39;95677.50;;;7.17;64.66
75166;BME280;63747;48.042;10.088;2024-02-15T00:16:41;95682.63;;;7.18;64.62
75166;BME280;63747;48.042;10.088;2024-02-15T00:19:41;95687.09;;;7.18;64.38
75166;BME280;63747;48.042;10.088;2024-02-15T00:22:42;95677.25;;;7.20;64.34
75166;BME280;63747;48.042;10.088;2024-02-15T00:25:43;95690.53;;;7.18;64.20
75166;BME280;63747;48.042;10.088;2024-02-15T00:28:44;95686.41;;;7.16;64.00
75166;BME280;63747;48.042;10.088;2024-02-15T00:31:45;95684.88;;;7.13;64.05
75166;BME280;63747;48.042;10.088;2024-02-15T00:34:47;95672.25;;;7.07;63.98
75166;BME280;63747;48.042;10.088;2024-02-15T00:37:47;95675.88;;;7.06;63.71
75166;BME280;63747;48.042;10.088;2024-02-15T00:40:49;95679.22;;;6.98;63.74
75166;BME280;63747;48.042;10.088;2024-02-15T00:43:50;95680.03;;;6.89;63.95
75166;BME280;63747;48.042;10.088;2024-02-15T00:46:51;95680.72;;;6.82;63.94
75166;BME280;63747;48.042;10.088;2024-02-15T00:49:52;95677.97;;;6.73;64.02
75166;BME280;63747;48.042;10.088;2024-02-15T00:52:52;95683.63;;;6.69;64.05
75166;BME280;63747;48.042;10.088;2024-02-15T00:55:53;95679.75;;;6.63;64.03
75166;BME280;63747;48.042;10.088;2024-02-15T00:58:54;95676.97;;;6.55;64.05
75166;BME280;63747;48.042;10.088;2024-02-15T01:01:54;95670.72;;;6.46;64.14
75166;BME280;63747;48.042;10.088;2024-02-15T01:04:55;95674.16;;;6.37;64.32
75166;BME280;63747;48.042;10.088;2024-02-15T01:07:57;95677.75;;;6.27;64.25
75166;BME280;63747;48.042;10.088;2024-02-15T01:10:58;95674.16;;;6.18;64.41
75166;BME280;63747;48.042;10.088;2024-02-15T01:13:59;95681.75;;;6.11;64.54
75166;BME280;63747;48.042;10.088;2024-02-15T01:17:00;95677.25;;;6.02;64.73
75166;BME280;63747;48.042;10.088;2024-02-15T01:20:00;95684.84;;;5.95;64.71
75166;BME280;63747;48.042;10.088;2024-02-15T01:23:01;95686.94;;;5.92;64.99
75166;BME280;63747;48.042;10.088;2024-02-15T01:26:02;95677.63;;;5.88;64.81
75166;BME280;63747;48.042;10.088;2024-02-15T01:29:03;95670.97;;;5.84;64.65
75166;BME280;63747;48.042;10.088;2024-02-15T01:32:04;95677.56;;;5.78;64.82
75166;BME280;63747;48.042;10.088;2024-02-15T01:35:05;95682.78;;;5.68;65.02
75166;BME280;63747;48.042;10.088;2024-02-15T01:38:06;95682.78;;;5.68;64.94
75166;BME280;63747;48.042;10.088;2024-02-15T01:41:07;95673.22;;;5.67;64.77
75166;BME280;63747;48.042;10.088;2024-02-15T01:44:08;95666.31;;;5.66;64.58
75166;BME280;63747;48.042;10.088;2024-02-15T01:47:11;95667.81;;;5.59;64.62
75166;BME280;63747;48.042;10.088;2024-02-15T01:50:13;95666.38;;;5.55;64.60
75166;BME280;63747;48.042;10.088;2024-02-15T01:53:14;95663.03;;;5.43;64.75
75166;BME280;63747;48.042;10.088;2024-02-15T01:56:16;95662.72;;;5.37;64.79
75166;BME280;63747;48.042;10.088;2024-02-15T01:59:17;95669.88;;;5.35;64.72
75166;BME280;63747;48.042;10.088;2024-02-15T02:02:20;95665.41;;;5.26;64.58
75166;BME280;63747;48.042;10.088;2024-02-15T02:05:21;95660.44;;;5.23;64.76
75166;BME280;63747;48.042;10.088;2024-02-15T02:08:22;95667.03;;;5.17;64.57
75166;BME280;63747;48.042;10.088;2024-02-15T02:11:23;95664.91;;;5.11;64.96
75166;BME280;63747;48.042;10.088;2024-02-15T02:14:24;95661.44;;;5.10;64.92
75166;BME280;63747;48.042;10.088;2024-02-15T02:17:25;95658.09;;;5.08;64.71
75166;BME280;63747;48.042;10.088;2024-02-15T02:20:26;95650.94;;;5.10;64.61
75166;BME280;63747;48.042;10.088;2024-02-15T02:23:28;95652.97;;;5.07;64.55
75166;BME280;63747;48.042;10.088;2024-02-15T02:26:31;95650.47;;;5.05;64.50
75166;BME280;63747;48.042;10.088;2024-02-15T02:29:32;95650.03;;;5.00;64.43
75166;BME280;63747;48.042;10.088;2024-02-15T02:32:33;95641.13;;;4.92;64.27
75166;BME280;63747;48.042;10.088;2024-02-15T02:35:34;95649.09;;;4.48;65.04
75166;BME280;63747;48.042;10.088;2024-02-15T02:38:35;95655.47;;;4.34;65.48
75166;BME280;63747;48.042;10.088;2024-02-15T02:41:38;95647.50;;;4.25;65.78
75166;BME280;63747;48.042;10.088;2024-02-15T02:44:38;95652.41;;;4.18;65.72
75166;BME280;63747;48.042;10.088;2024-02-15T02:47:39;95656.59;;;4.10;65.73
75166;BME280;63747;48.042;10.088;2024-02-15T02:50:40;95646.25;;;4.08;65.85
75166;BME280;63747;48.042;10.088;2024-02-15T02:53:40;95650.19;;;4.02;66.06
75166;BME280;63747;48.042;10.088;2024-02-15T02:56:41;95647.91;;;3.98;66.10
75166;BME280;63747;48.042;10.088;2024-02-15T02:59:45;95632.44;;;3.95;66.11
75166;BME280;63747;48.042;10.088;2024-02-15T03:02:47;95633.13;;;3.97;66.27
75166;BME280;63747;48.042;10.088;2024-02-15T03:05:48;95629.56;;;3.98;66.10
75166;BME280;63747;48.042;10.088;2024-02-15T03:08:49;95633.25;;;3.95;65.93
75166;BME280;63747;48.042;10.088;2024-02-15T03:11:50;95634.22;;;3.94;65.87
75166;BME280;63747;48.042;10.088;2024-02-15T03:14:50;95631.97;;;3.90;66.05
75166;BME280;63747;48.042;10.088;2024-02-15T03:17:51;95629.13;;;3.82;65.95
75166;BME280;63747;48.042;10.088;2024-02-15T03:20:52;95620.78;;;3.76;66.16
75166;BME280;63747;48.042;10.088;2024-02-15T03:23:53;95634.38;;;3.70;66.15
75166;BME280;63747;48.042;10.088;2024-02-15T03:26:54;95624.22;;;3.66;66.24
75166;BME280;63747;48.042;10.088;2024-02-15T03:29:55;95639.38;;;3.62;66.33
75166;BME280;63747;48.042;10.088;2024-02-15T03:32:58;95636.75;;;3.62;66.24
75166;BME280;63747;48.042;10.088;2024-02-15T03:35:59;95630.69;;;3.62;66.21
75166;BME280;63747;48.042;10.088;2024-02-15T03:39:00;95636.16;;;3.59;66.10
75166;BME280;63747;48.042;10.088;2024-02-15T03:42:01;95645.91;;;3.34;65.86
75166;BME280;63747;48.042;10.088;2024-02-15T03:45:05;95641.13;;;3.06;66.74
75166;BME280;63747;48.042;10.088;2024-02-15T03:48:06;95647.28;;;3.05;66.88
75166;BME280;63747;48.042;10.088;2024-02-15T03:51:07;95640.50;;;3.02;66.59
75166;BME280;63747;48.042;10.088;2024-02-15T03:54:09;95655.59;;;2.98;66.63
75166;BME280;63747;48.042;10.088;2024-02-15T03:57:10;95647.28;;;2.93;66.75
75166;BME280;63747;48.042;10.088;2024-02-15T04:00:12;95650.63;;;2.95;66.60
75166;BME280;63747;48.042;10.088;2024-02-15T04:03:15;95648.94;;;2.94;66.42
75166;BME280;63747;48.042;10.088;2024-02-15T04:06:15;95642.25;;;2.90;66.59
75166;BME280;63747;48.042;10.088;2024-02-15T04:09:16;95650.38;;;2.87;66.61
75166;BME280;63747;48.042;10.088;2024-02-15T04:12:20;95657.00;;;2.80;66.77
75166;BME280;63747;48.042;10.088;2024-02-15T04:15:21;95653.88;;;2.75;66.87
75166;BME280;63747;48.042;10.088;2024-02-15T04:18:22;95656.75;;;2.72;66.81
75166;BME280;63747;48.042;10.088;2024-02-15T04:21:23;95648.06;;;2.72;66.87
75166;BME280;63747;48.042;10.088;2024-02-15T04:24:24;95650.44;;;2.75;66.96
75166;BME280;63747;48.042;10.088;2024-02-15T04:27:25;95653.19;;;2.73;66.67
75166;BME280;63747;48.042;10.088;2024-02-15T04:30:26;95656.25;;;2.67;66.93
75166;BME280;63747;48.042;10.088;2024-02-15T04:33:27;95645.16;;;2.63;66.85
75166;BME280;63747;48.042;10.088;2024-02-15T04:36:27;95655.16;;;2.58;67.01
75166;BME280;63747;48.042;10.088;2024-02-15T04:39:36;95647.41;;;2.57;67.01
75166;BME280;63747;48.042;10.088;2024-02-15T04:42:37;95643.13;;;2.56;66.91
75166;BME280;63747;48.042;10.088;2024-02-15T04:45:39;95640.00;;;2.51;67.17
75166;BME280;63747;48.042;10.088;2024-02-15T04:48:41;95635.25;;;2.45;67.14
75166;BME280;63747;48.042;10.088;2024-02-15T04:51:42;95638.19;;;2.40;66.98
75166;BME280;63747;48.042;10.088;2024-02-15T04:54:44;95636.16;;;2.32;66.92
75166;BME280;63747;48.042;10.088;2024-02-15T04:57:45;95635.06;;;2.35;67.10
75166;BME280;63747;48.042;10.088;2024-02-15T05:00:48;95641.13;;;2.35;66.85
75166;BME280;63747;48.042;10.088;2024-02-15T05:03:53;95635.06;;;2.35;66.84
75166;BME280;63747;48.042;10.088;2024-02-15T05:06:55;95643.50;;;2.27;67.08
75166;BME280;63747;48.042;10.088;2024-02-15T05:09:56;95645.16;;;2.28;67.19
75166;BME280;63747;48.042;10.088;2024-02-15T05:12:56;95643.72;;;2.24;66.97
75166;BME280;63747;48.042;10.088;2024-02-15T05:15:57;95652.94;;;2.17;67.10
75166;BME280;63747;48.042;10.088;2024-02-15T05:18:58;95648.88;;;2.13;67.27
75166;BME280;63747;48.042;10.088;2024-02-15T05:21:59;95643.97;;;2.08;67.25
75166;BME280;63747;48.042;10.088;2024-02-15T05:25:01;95649.31;;;2.07;67.19
75166;BME280;63747;48.042;10.088;2024-02-15T05:28:05;95655.31;;;1.96;67.31
75166;BME280;63747;48.042;10.088;2024-02-15T05:31:12;95648.97;;;1.87;67.58
75166;BME280;63747;48.042;10.088;2024-02-15T05:34:17;95645.00;;;1.82;67.38
75166;BME280;63747;48.042;10.088;2024-02-15T05:37:18;95656.41;;;1.81;67.75
75166;BME280;63747;48.042;10.088;2024-02-15T05:40:19;95656.22;;;1.84;67.81
75166;BME280;63747;48.042;10.088;2024-02-15T05:43:19;95653.69;;;1.82;67.64
75166;BME280;63747;48.042;10.088;2024-02-15T05:46:20;95658.44;;;1.77;67.92
75166;BME280;63747;48.042;10.088;2024-02-15T05:49:21;95651.72;;;1.73;67.76
75166;BME280;63747;48.042;10.088;2024-02-15T05:52:23;95651.34;;;1.67;68.03
75166;BME280;63747;48.042;10.088;2024-02-15T05:55:24;95655.94;;;1.63;68.04
75166;BME280;63747;48.042;10.088;2024-02-15T05:58:26;95653.75;;;1.57;68.17
75166;BME280;63747;48.042;10.088;2024-02-15T06:01:27;95648.13;;;1.50;68.22
75166;BME280;63747;48.042;10.088;2024-02-15T06:04:29;95646.56;;;1.48;68.31
75166;BME280;63747;48.042;10.088;2024-02-15T06:07:30;95651.06;;;1.46;68.25
75166;BME280;63747;48.042;10.088;2024-02-15T06:10:34;95650.53;;;1.41;68.29
75166;BME280;63747;48.042;10.088;2024-02-15T06:13:35;95651.47;;;1.40;68.38
75166;BME280;63747;48.042;10.088;2024-02-15T06:16:42;95646.03;;;1.43;68.38
75166;BME280;63747;48.042;10.088;2024-02-15T06:19:43;95646.66;;;1.46;68.12
75166;BME280;63747;48.042;10.088;2024-02-15T06:22:44;95648.13;;;1.50;68.05
75166;BME280;63747;48.042;10.088;2024-02-15T06:25:51;95650.13;;;1.47;68.20
75166;BME280;63747;48.042;10.088;2024-02-15T06:28:53;95649.41;;;1.45;68.38
75166;BME280;63747;48.042;10.088;2024-02-15T06:32:12;95644.06;;;1.46;68.33
75166;BME280;63747;48.042;10.088;2024-02-15T06:35:31;95651.25;;;1.43;68.21
75166;BME280;63747;48.042;10.088;2024-02-15T06:38:51;95652.44;;;1.39;68.46
75166;BME280;63747;48.042;10.088;2024-02-15T06:42:15;95646.47;;;1.37;68.43
75166;BME280;63747;48.042;10.088;2024-02-15T06:45:16;95646.16;;;1.41;68.44
75166;BME280;63747;48.042;10.088;2024-02-15T06:48:18;95649.50;;;1.43;68.51
75166;BME280;63747;48.042;10.088;2024-02-15T06:51:18;95646.78;;;1.45;68.47
75166;BME280;63747;48.042;10.088;2024-02-15T06:54:19;95641.03;;;1.40;68.38
75166;BME280;63747;48.042;10.088;2024-02-15T06:57:20;95649.16;;;1.48;68.57
75166;BME280;63747;48.042;10.088;2024-02-15T07:00:21;95635.16;;;1.49;68.31
75166;BME280;63747;48.042;10.088;2024-02-15T07:03:22;95644.22;;;1.56;68.27
75166;BME280;63747;48.042;10.088;2024-02-15T07:06:23;95653.75;;;1.57;68.14
75166;BME280;63747;48.042;10.088;2024-02-15T07:09:24;95641.41;;;1.59;68.00
75166;BME280;63747;48.042;10.088;2024-02-15T07:12:25;95643.91;;;1.60;68.27
75166;BME280;63747;48.042;10.088;2024-02-15T07:15:25;95641.94;;;1.64;68.35
75166;BME280;63747;48.042;10.088;2024-02-15T07:18:27;95643.38;;;1.68;68.58
75166;BME280;63747;48.042;10.088;2024-02-15T07:21:27;95643.56;;;1.78;68.41
75166;BME280;63747;48.042;10.088;2024-02-15T07:24:29;95642.19;;;1.85;68.44
75166;BME280;63747;48.042;10.088;2024-02-15T07:27:29;95641.13;;;1.87;68.37
75166;BME280;63747;48.042;10.088;2024-02-15T07:30:30;95653.25;;;1.88;68.18
75166;BME280;63747;48.042;10.088;2024-02-15T07:33:31;95647.41;;;1.85;68.58
75166;BME280;63747;48.042;10.088;2024-02-15T07:36:32;95655.97;;;1.87;68.56
75166;BME280;63747;48.042;10.088;2024-02-15T07:39:33;95641.13;;;1.87;68.58
75166;BME280;63747;48.042;10.088;2024-02-15T07:42:34;95642.34;;;1.95;68.60
75166;BME280;63747;48.042;10.088;2024-02-15T07:45:35;95640.53;;;2.08;68.84
75166;BME280;63747;48.042;10.088;2024-02-15T07:48:37;95638.50;;;2.24;68.36
75166;BME280;63747;48.042;10.088;2024-02-15T07:51:39;95639.97;;;2.39;68.31
75166;BME280;63747;48.042;10.088;2024-02-15T07:54:40;95625.75;;;2.55;68.27
75166;BME280;63747;48.042;10.088;2024-02-15T07:57:41;95625.81;;;2.77;68.15
75166;BME280;63747;48.042;10.088;2024-02-15T08:00:41;95622.31;;;3.01;67.92
75166;BME280;63747;48.042;10.088;2024-02-15T08:03:43;95625.88;;;3.22;67.48
75166;BME280;63747;48.042;10.088;2024-02-15T08:06:46;95621.84;;;3.40;67.39
75166;BME280;63747;48.042;10.088;2024-02-15T08:09:48;95609.00;;;3.60;67.24
75166;BME280;63747;48.042;10.088;2024-02-15T08:12:51;95611.38;;;3.74;66.83
75166;BME280;63747;48.042;10.088;2024-02-15T08:15:53;95608.09;;;3.93;66.77
75166;BME280;63747;48.042;10.088;2024-02-15T08:18:54;95603.19;;;4.11;66.57
75166;BME280;63747;48.042;10.088;2024-02-15T08:21:55;95609.06;;;4.35;66.23
75166;BME280;63747;48.042;10.088;2024-02-15T08:24:56;95601.78;;;4.59;65.95
75166;BME280;63747;48.042;10.088;2024-02-15T08:27:57;95601.91;;;4.79;65.58
75166;BME280;63747;48.042;10.088;2024-02-15T08:30:58;95589.28;;;4.94;65.26
75166;BME280;63747;48.042;10.088;2024-02-15T08:33:58;95579.28;;;5.08;65.16
75166;BME280;63747;48.042;10.088;2024-02-15T08:37:00;95573.16;;;5.29;64.64
75166;BME280;63747;48.042;10.088;2024-02-15T08:40:04;95565.88;;;5.42;64.35
75166;BME280;63747;48.042;10.088;2024-02-15T08:43:05;95562.47;;;5.61;64.50
75166;BME280;63747;48.042;10.088;2024-02-15T08:46:06;95569.31;;;5.83;64.21
75166;BME280;63747;48.042;10.088;2024-02-15T08:49:07;95558.56;;;5.95;64.05
75166;BME280;63747;48.042;10.088;2024-02-15T08:52:07;95562.47;;;6.20;63.97
75166;BME280;63747;48.042;10.088;2024-02-15T08:55:09;95557.75;;;6.43;63.54
75166;BME280;63747;48.042;10.088;2024-02-15T08:58:10;95552.47;;;6.63;63.44
75166;BME280;63747;48.042;10.088;2024-02-15T09:01:11;95548.56;;;6.86;62.93
75166;BME280;63747;48.042;10.088;2024-02-15T09:04:13;95540.47;;;7.07;62.42
75166;BME280;63747;48.042;10.088;2024-02-15T09:07:14;95549.16;;;7.17;61.97
75166;BME280;63747;48.042;10.088;2024-02-15T09:10:15;95540.06;;;7.39;61.74
75166;BME280;63747;48.042;10.088;2024-02-15T09:13:18;95537.47;;;7.57;60.99
75166;BME280;63747;48.042;10.088;2024-02-15T09:16:19;95533.66;;;7.69;60.84
75166;BME280;63747;48.042;10.088;2024-02-15T09:19:21;95526.41;;;7.99;60.37
75166;BME280;63747;48.042;10.088;2024-02-15T09:22:24;95538.88;;;8.24;60.21
75166;BME280;63747;48.042;10.088;2024-02-15T09:25:24;95527.56;;;8.50;59.71
75166;BME280;63747;48.042;10.088;2024-02-15T09:28:25;95514.69;;;8.73;59.33
75166;BME280;63747;48.042;10.088;2024-02-15T09:31:26;95520.22;;;8.87;58.80
75166;BME280;63747;48.042;10.088;2024-02-15T09:34:26;95526.25;;;8.97;58.35
75166;BME280;63747;48.042;10.088;2024-02-15T09:37:27;95528.69;;;9.17;58.32
75166;BME280;63747;48.042;10.088;2024-02-15T09:40:28;95526.34;;;9.40;57.71
75166;BME280;63747;48.042;10.088;2024-02-15T09:43:29;95524.47;;;9.58;57.53
75166;BME280;63747;48.042;10.088;2024-02-15T09:46:37;95521.38;;;9.79;56.86
75166;BME280;63747;48.042;10.088;2024-02-15T09:49:41;95510.81;;;9.87;56.56
75166;BME280;63747;48.042;10.088;2024-02-15T09:52:52;95506.34;;;9.88;56.20
75166;BME280;63747;48.042;10.088;2024-02-15T09:55:56;95505.41;;;10.05;56.42
75166;BME280;63747;48.042;10.088;2024-02-15T09:59:04;95499.94;;;10.23;55.62
75166;BME280;63747;48.042;10.088;2024-02-15T10:02:05;95499.81;;;10.41;55.56
75166;BME280;63747;48.042;10.088;2024-02-15T10:05:13;95485.41;;;10.68;55.14
75166;BME280;63747;48.042;10.088;2024-02-15T10:08:14;95494.34;;;10.91;54.50
75166;BME280;63747;48.042;10.088;2024-02-15T10:11:15;95490.50;;;11.02;54.10
75166;BME280;63747;48.042;10.088;2024-02-15T10:14:16;95484.00;;;11.21;53.27
75166;BME280;63747;48.042;10.088;2024-02-15T10:17:19;95478.97;;;11.42;53.14
75166;BME280;63747;48.042;10.088;2024-02-15T10:20:20;95475.25;;;11.59;52.61
75166;BME280;63747;48.042;10.088;2024-02-15T10:23:20;95463.53;;;11.77;52.08
75166;BME280;63747;48.042;10.088;2024-02-15T10:26:21;95467.44;;;11.89;51.44
75166;BME280;63747;48.042;10.088;2024-02-15T10:29:23;95459.59;;;11.95;51.45
75166;BME280;63747;48.042;10.088;2024-02-15T10:32:34;95459.81;;;12.17;50.71
75166;BME280;63747;48.042;10.088;2024-02-15T10:35:35;95438.09;;;12.36;50.41
75166;BME280;63747;48.042;10.088;2024-02-15T10:38:37;95444.06;;;12.53;50.40
75166;BME280;63747;48.042;10.088;2024-02-15T10:41:38;95435.75;;;12.56;51.83
75166;BME280;63747;48.042;10.088;2024-02-15T10:44:41;95428.19;;;12.68;50.43
75166;BME280;63747;48.042;10.088;2024-02-15T10:47:46;95418.00;;;12.86;49.50
75166;BME280;63747;48.042;10.088;2024-02-15T10:50:47;95413.69;;;13.00;49.20
75166;BME280;63747;48.042;10.088;2024-02-15T10:53:57;95417.59;;;13.12;48.35
75166;BME280;63747;48.042;10.088;2024-02-15T10:57:05;95412.00;;;13.22;48.42
75166;BME280;63747;48.042;10.088;2024-02-15T11:00:07;95407.00;;;13.33;47.71
75166;BME280;63747;48.042;10.088;2024-02-15T11:03:17;95411.88;;;13.45;47.59
75166;BME280;63747;48.042;10.088;2024-02-15T11:06:21;95411.22;;;13.57;47.95
75166;BME280;63747;48.042;10.088;2024-02-15T11:09:23;95397.84;;;13.72;47.14
75166;BME280;63747;48.042;10.088;2024-02-15T11:12:25;95394.25;;;13.80;46.99
75166;BME280;63747;48.042;10.088;2024-02-15T11:18:47;95374.34;;;14.19;46.27
75166;BME280;63747;48.042;10.088;2024-02-15T11:21:55;95374.91;;;14.35;46.17
75166;BME280;63747;48.042;10.088;2024-02-15T11:24:57;95370.69;;;14.48;45.82
75166;BME280;63747;48.042;10.088;2024-02-15T11:27:57;95368.84;;;14.76;45.05
75166;BME280;63747;48.042;10.088;2024-02-15T11:30:58;95366.72;;;14.93;45.35
75166;BME280;63747;48.042;10.088;2024-02-15T11:33:59;95366.09;;;14.97;45.28
75166;BME280;63747;48.042;10.088;2024-02-15T11:37:00;95361.28;;;15.14;44.38
75166;BME280;63747;48.042;10.088;2024-02-15T11:40:01;95349.88;;;15.27;43.68
75166;BME280;63747;48.042;10.088;2024-02-15T11:43:02;95351.16;;;15.44;43.92
75166;BME280;63747;48.042;10.088;2024-02-15T11:46:04;95347.06;;;15.48;43.07
75166;BME280;63747;48.042;10.088;2024-02-15T11:49:05;95347.34;;;15.67;42.60
75166;BME280;63747;48.042;10.088;2024-02-15T11:52:10;95346.94;;;15.70;41.90
75166;BME280;63747;48.042;10.088;2024-02-15T11:55:12;95346.56;;;15.80;42.27
75166;BME280;63747;48.042;10.088;2024-02-15T11:58:16;95330.72;;;15.98;41.64
75166;BME280;63747;48.042;10.088;2024-02-15T12:01:21;95342.31;;;16.18;41.16
75166;BME280;63747;48.042;10.088;2024-02-15T12:04:42;95334.94;;;16.34;41.03
75166;BME280;63747;48.042;10.088;2024-02-15T12:08:01;95329.97;;;16.44;40.70
75166;BME280;63747;48.042;10.088;2024-02-15T12:11:21;95324.63;;;16.44;39.68
75166;BME280;63747;48.042;10.088;2024-02-15T12:14:41;95328.31;;;16.29;40.23
75166;BME280;63747;48.042;10.088;2024-02-15T12:18:15;95325.66;;;16.49;40.15
75166;BME280;63747;48.042;10.088;2024-02-15T12:21:34;95325.84;;;16.74;40.33
75166;BME280;63747;48.042;10.088;2024-02-15T12:24:36;95319.44;;;16.75;40.09
75166;BME280;63747;48.042;10.088;2024-02-15T12:27:43;95318.00;;;16.66;40.30
75166;BME280;63747;48.042;10.088;2024-02-15T12:30:44;95311.44;;;16.42;40.32
75166;BME280;63747;48.042;10.088;2024-02-15T12:33:46;95309.78;;;16.61;39.27
75166;BME280;63747;48.042;10.088;2024-02-15T12:36:48;95305.63;;;16.78;39.60
75166;BME280;63747;48.042;10.088;2024-02-15T12:39:50;95297.25;;;16.48;41.54
75166;BME280;63747;48.042;10.088;2024-02-15T12:42:53;95295.19;;;16.30;38.99
75166;BME280;63747;48.042;10.088;2024-02-15T12:45:54;95287.97;;;16.38;39.71
75166;BME280;63747;48.042;10.088;2024-02-15T12:49:10;95287.47;;;16.80;38.44
75166;BME280;63747;48.042;10.088;2024-02-15T12:52:32;95273.50;;;16.78;38.65
75166;BME280;63747;48.042;10.088;2024-02-15T12:55:35;95279.06;;;16.83;38.61
75166;BME280;63747;48.042;10.088;2024-02-15T12:58:37;95276.91;;;17.05;38.91
75166;BME280;63747;48.042;10.088;2024-02-15T13:01:39;95271.78;;;17.10;38.34
75166;BME280;63747;48.042;10.088;2024-02-15T13:04:40;95269.13;;;16.91;38.22
75166;BME280;63747;48.042;10.088;2024-02-15T13:07:40;95273.50;;;16.72;37.94
75166;BME280;63747;48.042;10.088;2024-02-15T13:10:42;95262.88;;;16.19;38.61
75166;BME280;63747;48.042;10.088;2024-02-15T13:13:42;95270.91;;;16.19;41.14
75166;BME280;63747;48.042;10.088;2024-02-15T13:16:43;95259.19;;;16.07;39.51
75166;BME280;63747;48.042;10.088;2024-02-15T13:19:46;95259.78;;;16.09;40.41
75166;BME280;63747;48.042;10.088;2024-02-15T13:22:49;95250.75;;;16.03;40.26
75166;BME280;63747;48.042;10.088;2024-02-15T13:25:51;95247.22;;;15.76;39.38
75166;BME280;63747;48.042;10.088;2024-02-15T13:28:52;95253.00;;;15.99;39.59
75166;BME280;63747;48.042;10.088;2024-02-15T13:31:53;95248.88;;;16.10;39.51
75166;BME280;63747;48.042;10.088;2024-02-15T13:34:54;95249.72;;;16.37;39.18
75166;BME280;63747;48.042;10.088;2024-02-15T13:37:56;95248.88;;;16.50;37.58
75166;BME280;63747;48.042;10.088;2024-02-15T13:41:00;95247.66;;;16.19;37.46
75166;BME280;63747;48.042;10.088;2024-02-15T13:44:03;95240.66;;;16.12;38.37
75166;BME280;63747;48.042;10.088;2024-02-15T13:47:04;95245.84;;;16.26;37.97
75166;BME280;63747;48.042;10.088;2024-02-15T13:50:05;95244.56;;;16.02;38.20
75166;BME280;63747;48.042;10.088;2024-02-15T13:53:08;95246.84;;;15.72;38.44
75166;BME280;63747;48.042;10.088;2024-02-15T13:56:13;95246.84;;;15.79;39.07
75166;BME280;63747;48.042;10.088;2024-02-15T13:59:16;95248.06;;;16.10;38.74
75166;BME280;63747;48.042;10.088;2024-02-15T14:02:17;95238.41;;;15.75;38.37
75166;BME280;63747;48.042;10.088;2024-02-15T14:05:19;95232.00;;;15.63;39.46
75166;BME280;63747;48.042;10.088;2024-02-15T14:08:20;95230.59;;;15.81;39.24
75166;BME280;63747;48.042;10.088;2024-02-15T14:11:22;95224.19;;;15.48;38.17
75166;BME280;63747;48.042;10.088;2024-02-15T14:14:23;95226.22;;;15.40;40.01
75166;BME280;63747;48.042;10.088;2024-02-15T14:17:25;95223.53;;;15.33;39.99
75166;BME280;63747;48.042;10.088;2024-02-15T14:20:28;95224.94;;;15.22;40.83
75166;BME280;63747;48.042;10.088;2024-02-15T14:23:28;95217.91;;;15.08;40.36
75166;BME280;63747;48.042;10.088;2024-02-15T14:26:32;95217.09;;;15.14;41.01
75166;BME280;63747;48.042;10.088;2024-02-15T14:29:33;95207.81;;;15.10;41.52
75166;BME280;63747;48.042;10.088;2024-02-15T14:32:37;95205.22;;;15.23;41.52
75166;BME280;63747;48.042;10.088;2024-02-15T14:35:56;95209.28;;;15.06;41.62
75166;BME280;63747;48.042;10.088;2024-02-15T14:38:59;95209.44;;;14.91;41.77
75166;BME280;63747;48.042;10.088;2024-02-15T14:41:59;95202.00;;;14.80;41.89
75166;BME280;63747;48.042;10.088;2024-02-15T14:45:00;95208.78;;;14.89;41.91
75166;BME280;63747;48.042;10.088;2024-02-15T14:48:01;95203.25;;;14.84;41.75
75166;BME280;63747;48.042;10.088;2024-02-15T14:51:03;95197.84;;;14.64;42.49
75166;BME280;63747;48.042;10.088;2024-02-15T14:54:04;95193.06;;;14.53;42.72
75166;BME280;63747;48.042;10.088;2024-02-15T14:57:05;95192.91;;;14.68;43.19
75166;BME280;63747;48.042;10.088;2024-02-15T15:00:07;95194.75;;;14.67;43.12
75166;BME280;63747;48.042;10.088;2024-02-15T15:03:12;95190.28;;;14.75;43.90
75166;BME280;63747;48.042;10.088;2024-02-15T15:06:14;95184.97;;;14.88;44.04
75166;BME280;63747;48.042;10.088;2024-02-15T15:09:33;95176.19;;;14.94;44.56
75166;BME280;63747;48.042;10.088;2024-02-15T15:12:52;95180.91;;;14.99;44.96
75166;BME280;63747;48.042;10.088;2024-02-15T15:15:53;95180.13;;;15.05;44.56
75166;BME280;63747;48.042;10.088;2024-02-15T15:18:53;95177.59;;;14.96;44.46
75166;BME280;63747;48.042;10.088;2024-02-15T15:21:55;95182.47;;;14.73;45.22
75166;BME280;63747;48.042;10.088;2024-02-15T15:24:55;95179.97;;;14.58;45.88
75166;BME280;63747;48.042;10.088;2024-02-15T15:27:56;95181.38;;;14.54;46.11
75166;BME280;63747;48.042;10.088;2024-02-15T15:30:57;95178.34;;;14.64;46.23
75166;BME280;63747;48.042;10.088;2024-02-15T15:33:58;95177.13;;;14.73;46.57
75166;BME280;63747;48.042;10.088;2024-02-15T15:36:59;95173.81;;;14.64;46.93
75166;BME280;63747;48.042;10.088;2024-02-15T15:40:01;95168.19;;;14.46;47.43
75166;BME280;63747;48.042;10.088;2024-02-15T15:43:02;95172.25;;;14.35;47.79
75166;BME280;63747;48.042;10.088;2024-02-15T15:46:03;95177.75;;;14.27;47.62
75166;BME280;63747;48.042;10.088;2024-02-15T15:49:04;95180.88;;;14.03;48.59
75166;BME280;63747;48.042;10.088;2024-02-15T15:52:05;95185.50;;;13.66;48.75
75166;BME280;63747;48.042;10.088;2024-02-15T15:55:07;95184.31;;;13.47;49.62
75166;BME280;63747;48.042;10.088;2024-02-15T15:58:11;95184.25;;;13.41;50.06
75166;BME280;63747;48.042;10.088;2024-02-15T16:01:11;95188.00;;;13.25;50.12
75166;BME280;63747;48.042;10.088;2024-02-15T16:04:12;95193.28;;;13.18;50.31